Colby, KS

10:56 PM CST on January 21, 2018 (GMT -0600)
Shaltz

Weather History for KCBK - November, 2012

Change the Weather History Date:

Wednesday, November 7, 2012

  Actual Average (KGLD) Record (KGLD)
Temperature  
Mean Temperature 50 °F -  
Max Temperature 71 °F 57 °F 82 °F (1931)
Min Temperature 30 °F 29 °F 12 °F (1938)
Degree Days  
Heating Degree Days 14    
Moisture  
Dew Point 35 °F    
Average Humidity 62    
Maximum Humidity 93    
Minimum Humidity 33    
Precipitation  
Precipitation 0.00 in - - ()
Sea Level Pressure  
Sea Level Pressure 30.04 in    
Wind  
Wind Speed 8 mph ()    
Max Wind Speed 18 mph    
Max Gust Speed 24 mph    
Visibility 10.0 miles    
Events      
Averages and records for this station are not official NWS values.
T = Trace of Precipitation, MM = Missing Value Source: Averaged Metar Reports

Daily Weather History Graph

Daily Weather History Graph

Search for Another Location

Airport or City:

Trip Planner

Search our weather history database for the weather conditions in past years. The results will help you decide how hot, cold, wet, or windy it might be!

Date:

Astronomy

Nov. 07, 2012 Rise Set
Actual Time 7:19 AM CST 5:35 PM CST
Civil Twilight 6:51 AM CST 6:03 PM CST
Nautical Twilight 6:19 AM CST 6:36 PM CST
Astronomical Twilight 5:47 AM CST 7:07 PM CST
Moon 12:17 AM CST (11/7) 1:44 PM CST (11/7)
Length of Visible Light 11h 12m
Length of Day
10h 16m
Last Quarter, 43% of the Moon is Illuminated
Nov 7
Last Quarter
Nov 13
New
Nov 20
First Quarter
Nov 28
Full
Dec 6
Last Quarter

Hourly Weather History & Observations

Time (CST) Temp. Windchill Dew Point Humidity Pressure Visibility Wind Dir Wind Speed Gust Speed Precip Events Conditions
12:15 AM 32.0 °F 26.4 °F 28.4 °F 87% 30.18 in 10.0 mi West 5.8 mph - N/A   Clear
12:35 AM 33.8 °F 29.6 °F 30.2 °F 87% 30.18 in 10.0 mi West 4.6 mph - N/A   Clear
12:55 AM 33.8 °F 28.6 °F 30.2 °F 87% 30.18 in 10.0 mi West 5.8 mph - N/A   Clear
1:15 AM 32.0 °F 26.4 °F 26.6 °F 80% 30.18 in 10.0 mi West 5.8 mph - N/A   Clear
1:35 AM 32.0 °F 26.4 °F 28.4 °F 87% 30.18 in 10.0 mi WSW 5.8 mph - N/A   Clear
1:55 AM 32.0 °F 26.4 °F 28.4 °F 87% 30.18 in 10.0 mi West 5.8 mph - N/A   Clear
2:15 AM 32.0 °F 27.5 °F 28.4 °F 87% 30.17 in 10.0 mi West 4.6 mph - N/A   Clear
2:35 AM 33.8 °F 30.8 °F 30.2 °F 87% 30.17 in 10.0 mi WSW 3.5 mph - N/A   Clear
2:55 AM 33.8 °F - 30.2 °F 87% 30.15 in 10.0 mi Calm Calm - N/A   Clear
3:15 AM 30.2 °F 26.7 °F 26.6 °F 86% 30.15 in 10.0 mi WSW 3.5 mph - N/A   Clear
3:35 AM 32.0 °F 27.5 °F 28.4 °F 87% 30.15 in 10.0 mi WSW 4.6 mph - N/A   Clear
3:55 AM 32.0 °F 27.5 °F 28.4 °F 87% 30.15 in 10.0 mi WSW 4.6 mph - N/A   Clear
4:15 AM 32.0 °F 28.7 °F 28.4 °F 87% 30.14 in 10.0 mi WSW 3.5 mph - N/A   Clear
4:35 AM 35.6 °F 32.8 °F 32.0 °F 87% 30.14 in 10.0 mi SSW 3.5 mph - N/A   Clear
4:55 AM 32.0 °F 28.7 °F 28.4 °F 87% 30.14 in 10.0 mi SW 3.5 mph - N/A   Clear
5:15 AM 32.0 °F 26.4 °F 28.4 °F 87% 30.14 in 10.0 mi SSW 5.8 mph - N/A   Clear
5:35 AM 30.2 °F 25.4 °F 28.4 °F 93% 30.13 in 10.0 mi SSW 4.6 mph - N/A   Clear
5:55 AM 32.0 °F 27.5 °F 28.4 °F 87% 30.13 in 10.0 mi South 4.6 mph - N/A   Clear
6:15 AM 32.0 °F 26.4 °F 30.2 °F 93% 30.12 in 10.0 mi South 5.8 mph - N/A   Clear
6:35 AM 35.6 °F 32.8 °F 32.0 °F 87% 30.12 in 10.0 mi South 3.5 mph - N/A   Clear
6:55 AM 33.8 °F 30.8 °F 30.2 °F 87% 30.12 in 10.0 mi South 3.5 mph - N/A   Clear
7:15 AM 33.8 °F 27.7 °F 32.0 °F 93% 30.11 in 10.0 mi SSE 6.9 mph - N/A   Clear
7:35 AM 33.8 °F 28.6 °F 32.0 °F 93% 30.11 in 10.0 mi SSE 5.8 mph - N/A   Clear
7:55 AM 37.4 °F 33.8 °F 32.0 °F 81% 30.12 in 10.0 mi SSE 4.6 mph - N/A   Clear
8:15 AM 42.8 °F 39.3 °F 33.8 °F 70% 30.12 in 10.0 mi SSE 5.8 mph - N/A   Clear
8:35 AM 44.6 °F 40.2 °F 33.8 °F 66% 30.12 in 10.0 mi SSE 8.1 mph - N/A   Clear
8:55 AM 46.4 °F 41.5 °F 35.6 °F 66% 30.12 in 10.0 mi SSE 10.4 mph - N/A   Clear
9:15 AM 48.2 °F - 35.6 °F 62% 30.11 in 10.0 mi SSE 10.4 mph - N/A   Clear
9:35 AM 50.0 °F - 37.4 °F 62% 30.10 in 10.0 mi SSE 9.2 mph - N/A   Clear
9:55 AM 51.8 °F - 37.4 °F 58% 30.10 in 10.0 mi SSE 10.4 mph - N/A   Clear
10:15 AM 53.6 °F - 37.4 °F 54% 30.09 in 10.0 mi SSE 10.4 mph - N/A   Clear
10:35 AM 55.4 °F - 39.2 °F 54% 30.09 in 10.0 mi South 11.5 mph - N/A   Clear
10:55 AM 57.2 °F - 39.2 °F 51% 30.09 in 10.0 mi SSE 11.5 mph - N/A   Clear
11:15 AM 59.0 °F - 39.2 °F 48% 30.08 in 10.0 mi SSE 10.4 mph 16.1 mph N/A   Clear
11:35 AM 60.8 °F - 41.0 °F 48% 30.07 in 10.0 mi SSE 11.5 mph - N/A   Clear
11:55 AM 62.6 °F - 39.2 °F 42% 30.06 in 10.0 mi SSE 11.5 mph - N/A   Clear
12:15 PM 64.4 °F - 39.2 °F 40% 30.04 in 10.0 mi South 12.7 mph 18.4 mph N/A   Clear
12:35 PM 66.2 °F - 39.2 °F 37% 30.03 in 10.0 mi South 13.8 mph - N/A   Clear
12:55 PM 68.0 °F - 41.0 °F 37% 30.02 in 10.0 mi South 13.8 mph 24.2 mph N/A   Clear
1:15 PM 69.8 °F - 41.0 °F 35% 30.00 in 10.0 mi SSE 13.8 mph - N/A   Clear
1:35 PM 69.8 °F - 41.0 °F 35% 29.99 in 10.0 mi South 13.8 mph - N/A   Clear
1:55 PM 69.8 °F - 41.0 °F 35% 29.98 in 10.0 mi SSE 15.0 mph 19.6 mph N/A   Clear
2:15 PM 71.6 °F - 41.0 °F 33% 29.97 in 10.0 mi South 13.8 mph - N/A   Clear
2:35 PM 71.6 °F - 41.0 °F 33% 29.96 in 10.0 mi SSE 15.0 mph - N/A   Clear
2:55 PM 71.6 °F - 41.0 °F 33% 29.96 in 10.0 mi South 12.7 mph - N/A   Clear
3:15 PM 71.6 °F - 41.0 °F 33% 29.95 in 10.0 mi South 16.1 mph - N/A   Clear
3:35 PM 71.6 °F - 41.0 °F 33% 29.95 in 10.0 mi SSE 15.0 mph - N/A   Clear
3:55 PM 71.6 °F - 41.0 °F 33% 29.94 in 10.0 mi South 16.1 mph - N/A   Clear
4:15 PM 69.8 °F - 41.0 °F 35% 29.93 in 10.0 mi SSE 15.0 mph 21.9 mph N/A   Clear
4:35 PM 69.8 °F - 41.0 °F 35% 29.93 in 10.0 mi SSE 13.8 mph - N/A   Clear
4:55 PM 68.0 °F - 41.0 °F 37% 29.93 in 10.0 mi SSE 13.8 mph - N/A   Clear
5:15 PM 66.2 °F - 41.0 °F 40% 29.93 in 10.0 mi SSE 13.8 mph - N/A   Clear
5:35 PM 64.4 °F - 41.0 °F 42% 29.92 in 10.0 mi SSE 12.7 mph - N/A   Clear
5:55 PM 62.6 °F - 39.2 °F 42% 29.92 in 10.0 mi SSE 12.7 mph - N/A   Clear
6:15 PM 60.8 °F - 41.0 °F 48% 29.93 in 10.0 mi SSE 13.8 mph 21.9 mph N/A   Clear
6:35 PM 60.8 °F - 39.2 °F 45% 29.93 in 10.0 mi South 15.0 mph - N/A   Clear
6:55 PM 59.0 °F - 39.2 °F 48% 29.94 in 10.0 mi South 13.8 mph - N/A   Clear
7:15 PM 57.2 °F - 39.2 °F 51% 29.94 in 10.0 mi South 13.8 mph - N/A   Clear
7:35 PM 57.2 °F - 37.4 °F 48% 29.94 in 10.0 mi SSE 11.5 mph - N/A   Clear
7:55 PM 55.4 °F - 37.4 °F 51% 29.94 in 10.0 mi SSE 15.0 mph - N/A   Clear
8:15 PM 53.6 °F - 37.4 °F 54% 29.93 in 10.0 mi SSE 13.8 mph - N/A   Clear
8:35 PM 53.6 °F - 37.4 °F 54% 29.93 in 10.0 mi SSE 16.1 mph 23.0 mph N/A   Clear
8:55 PM 53.6 °F - 37.4 °F 54% 29.93 in 10.0 mi SSE 16.1 mph - N/A   Clear
9:15 PM 53.6 °F - 35.6 °F 51% 29.93 in 10.0 mi SSE 18.4 mph - N/A   Clear
9:35 PM 51.8 °F - 35.6 °F 54% 29.93 in 10.0 mi SSE 12.7 mph 19.6 mph N/A   Clear
9:55 PM 50.0 °F - 35.6 °F 58% 29.93 in 10.0 mi SE 11.5 mph - N/A   Clear
10:15 PM 46.4 °F 42.4 °F 35.6 °F 66% 29.92 in 10.0 mi SE 8.1 mph - N/A   Clear
10:35 PM 46.4 °F 41.9 °F 33.8 °F 62% 29.91 in 10.0 mi SE 9.2 mph - N/A   Clear
10:55 PM 46.4 °F 41.9 °F 33.8 °F 62% 29.91 in 10.0 mi SSE 9.2 mph - N/A   Clear
11:15 PM 44.6 °F 40.7 °F 33.8 °F 66% 29.90 in 10.0 mi SSE 6.9 mph - N/A   Clear
11:35 PM 44.6 °F 41.4 °F 33.8 °F 66% 29.90 in 10.0 mi SSE 5.8 mph - N/A   Clear
11:55 PM 44.6 °F 39.2 °F 33.8 °F 66% 29.89 in 10.0 mi SSE 10.4 mph - N/A   Clear